createdAt,value
2018-03-27T00:00:32.222Z,9.64
2018-03-27T00:01:42.280Z,9.7
2018-03-27T00:02:51.836Z,9.64
2018-03-27T00:04:01.623Z,9.72
2018-03-27T00:05:11.700Z,9.57
2018-03-27T00:06:21.886Z,9.63
2018-03-27T00:07:31.952Z,9.66
2018-03-27T00:08:42.035Z,9.62
2018-03-27T00:09:51.872Z,9.63
2018-03-27T00:11:01.927Z,9.64
2018-03-27T00:12:12.011Z,9.55
2018-03-27T00:13:21.799Z,9.57
2018-03-27T00:14:31.870Z,9.56
2018-03-27T00:15:41.685Z,9.62
2018-03-27T00:16:51.492Z,9.62
2018-03-27T00:18:01.023Z,9.63
2018-03-27T00:19:10.826Z,9.67
2018-03-27T00:20:20.631Z,9.59
2018-03-27T00:21:30.714Z,9.52
2018-03-27T00:22:40.771Z,9.59
2018-03-27T00:23:50.822Z,9.56
2018-03-27T00:25:00.623Z,9.53
2018-03-27T00:26:10.440Z,9.53
2018-03-27T00:27:20.244Z,9.55
2018-03-27T00:28:30.306Z,9.48
2018-03-27T00:29:40.109Z,9.39
2018-03-27T00:30:49.900Z,9.5
2018-03-27T00:32:00.034Z,9.45
2018-03-27T00:33:09.827Z,9.41
2018-03-27T00:34:19.637Z,9.42
2018-03-27T00:35:29.442Z,9.39
2018-03-27T00:36:39.507Z,9.35
2018-03-27T00:37:49.633Z,9.39
2018-03-27T00:38:59.222Z,9.39
2018-03-27T00:40:09.026Z,9.39
2018-03-27T00:41:19.149Z,9.27
2018-03-27T00:42:28.972Z,9.34
2018-03-27T00:43:38.537Z,9.35
2018-03-27T00:44:48.590Z,9.32
2018-03-27T00:45:58.655Z,9.38
2018-03-27T00:47:08.720Z,9.38
2018-03-27T00:48:18.788Z,9.34
2018-03-27T00:49:28.849Z,9.34
2018-03-27T00:50:38.375Z,9.37
2018-03-27T00:51:48.180Z,9.35
2018-03-27T00:52:58.265Z,9.38
2018-03-27T00:54:08.334Z,9.34
2018-03-27T00:55:18.471Z,9.35
2018-03-27T00:56:28.631Z,9.3
2018-03-27T00:57:38.695Z,9.3
2018-03-27T00:58:48.755Z,9.42
2018-03-27T00:59:58.292Z,9.38
2018-03-27T01:01:08.375Z,9.34
2018-03-27T01:02:18.480Z,9.42
2018-03-27T01:03:28.562Z,9.42
2018-03-27T01:04:38.375Z,9.42
2018-03-27T01:05:48.442Z,9.42
2018-03-27T01:06:58.517Z,9.34
2018-03-27T01:08:08.729Z,9.39
2018-03-27T01:09:18.784Z,9.41
2018-03-27T01:10:28.591Z,9.41
2018-03-27T01:11:38.648Z,9.42
2018-03-27T01:12:48.436Z,9.38
2018-03-27T01:13:58.244Z,9.37
2018-03-27T01:15:08.306Z,9.45
2018-03-27T01:16:18.376Z,9.35
2018-03-27T01:17:28.448Z,9.44
2018-03-27T01:18:38.515Z,9.41
2018-03-27T01:19:48.643Z,9.47
2018-03-27T01:20:58.429Z,9.41
2018-03-27T01:22:08.475Z,9.41
2018-03-27T01:23:18.283Z,9.42
2018-03-27T01:24:27.558Z,9.45
2018-03-27T01:25:37.638Z,9.41
2018-03-27T01:26:47.456Z,9.38
2018-03-27T01:27:57.510Z,9.39
2018-03-27T01:29:07.567Z,9.42
2018-03-27T01:30:17.625Z,9.39
2018-03-27T01:31:27.444Z,9.39
2018-03-27T01:32:36.963Z,9.42
2018-03-27T01:33:47.041Z,9.44
2018-03-27T01:34:56.857Z,9.42
2018-03-27T01:36:06.653Z,9.41
2018-03-27T01:37:16.787Z,9.38
2018-03-27T01:38:26.602Z,9.39
2018-03-27T01:39:36.672Z,9.38
2018-03-27T01:40:46.484Z,9.39
2018-03-27T01:41:56.294Z,9.35
2018-03-27T01:43:06.366Z,9.29
2018-03-27T01:44:15.900Z,9.38
2018-03-27T01:45:25.697Z,9.37
2018-03-27T01:46:35.244Z,9.24
2018-03-27T01:47:45.323Z,9.24
2018-03-27T01:48:55.132Z,9.35
2018-03-27T01:50:04.932Z,9.38
2018-03-27T01:51:14.729Z,9.34
2018-03-27T01:52:24.800Z,9.41
2018-03-27T01:53:34.859Z,9.29
2018-03-27T01:54:44.649Z,9.35
2018-03-27T01:55:53.923Z,9.44
2018-03-27T01:57:03.731Z,9.37
2018-03-27T01:58:13.529Z,9.27
2018-03-27T01:59:23.592Z,9.39
2018-03-27T02:00:33.394Z,9.38
2018-03-27T02:01:42.924Z,9.41
2018-03-27T02:02:52.987Z,9.38
2018-03-27T02:04:02.258Z,9.39
2018-03-27T02:05:12.395Z,9.41
2018-03-27T02:06:22.578Z,9.39
2018-03-27T02:07:32.631Z,9.37
2018-03-27T02:08:42.435Z,9.42
2018-03-27T02:09:52.486Z,9.32
2018-03-27T02:11:02.562Z,9.34
2018-03-27T02:12:12.635Z,9.38
2018-03-27T02:13:22.430Z,9.27
2018-03-27T02:14:32.484Z,9.37
2018-03-27T02:15:42.551Z,9.37
2018-03-27T02:16:52.616Z,9.26
2018-03-27T02:18:02.692Z,9.32
2018-03-27T02:19:12.494Z,9.29
2018-03-27T02:20:22.301Z,9.23
2018-03-27T02:21:32.379Z,9.26
2018-03-27T02:22:42.441Z,9.2
2018-03-27T02:23:51.984Z,9.11
2018-03-27T02:25:01.525Z,9.29
2018-03-27T02:26:11.338Z,9.29
2018-03-27T02:27:21.426Z,9.21
2018-03-27T02:28:31.487Z,9.21
2018-03-27T02:29:41.598Z,9.21
2018-03-27T02:30:51.682Z,9.24
2018-03-27T02:32:01.773Z,9.26
2018-03-27T02:33:11.854Z,9.24
2018-03-27T02:34:21.943Z,9.35
2018-03-27T02:35:32.121Z,9.37
2018-03-27T02:36:41.903Z,9.23
2018-03-27T02:37:51.720Z,9.34
2018-03-27T02:39:01.790Z,9.3
2018-03-27T02:40:11.874Z,9.3
2018-03-27T02:41:21.679Z,9.37
2018-03-27T02:42:31.483Z,9.37
2018-03-27T02:43:41.573Z,9.27
2018-03-27T02:44:51.131Z,9.24
2018-03-27T02:46:01.236Z,9.24
2018-03-27T02:47:11.111Z,9.17
2018-03-27T02:48:21.211Z,9.24
2018-03-27T02:49:31.024Z,9.26
2018-03-27T02:50:41.095Z,9.2
2018-03-27T02:51:50.380Z,9.09
2018-03-27T02:53:00.453Z,9.17
2018-03-27T02:54:10.278Z,9.2
2018-03-27T02:55:20.356Z,9.17
2018-03-27T02:56:30.197Z,9.2
2018-03-27T02:57:40.330Z,9.23
2018-03-27T02:58:50.468Z,9.26
2018-03-27T03:00:00.538Z,9.21
2018-03-27T03:01:10.602Z,9.26
2018-03-27T03:02:20.706Z,9.2
2018-03-27T03:03:30.786Z,9.12
2018-03-27T03:04:40.940Z,9.26
2018-03-27T03:05:50.752Z,9.16
2018-03-27T03:37:41.844Z,6.54
2018-03-27T03:38:51.625Z,6.47
2018-03-27T03:40:01.171Z,6.55
2018-03-27T03:41:10.979Z,6.61
2018-03-27T03:42:21.032Z,6.67
2018-03-27T03:43:31.138Z,6.79
2018-03-27T03:44:40.926Z,6.82
2018-03-27T03:45:50.732Z,7.01
2018-03-27T03:47:00.278Z,7.11
2018-03-27T03:48:10.068Z,7.26
2018-03-27T03:49:20.138Z,7.34
2018-03-27T03:50:29.930Z,7.48
2018-03-27T03:51:39.726Z,7.63
2018-03-27T03:52:49.778Z,7.78
2018-03-27T03:53:59.574Z,7.95
2018-03-27T03:55:09.149Z,7.93
2018-03-27T03:56:18.930Z,8.09
2018-03-27T03:57:28.992Z,8.14
2018-03-27T03:58:39.061Z,8.24
2018-03-27T03:59:48.873Z,8.21
2018-03-27T04:00:58.685Z,8.28
2018-03-27T04:02:08.749Z,8.5
2018-03-27T04:03:18.800Z,8.46
2018-03-27T04:04:28.619Z,8.43
2018-03-27T04:05:38.675Z,8.44
2018-03-27T04:06:48.784Z,8.43
2018-03-27T04:07:58.576Z,8.61
2018-03-27T04:09:08.112Z,8.62
2018-03-27T04:10:17.918Z,8.57
2018-03-27T04:11:27.812Z,8.58
2018-03-27T04:12:37.919Z,8.71
2018-03-27T04:13:48.003Z,8.77
2018-03-27T04:14:58.068Z,8.77
2018-03-27T04:16:07.868Z,8.77
2018-03-27T04:17:17.658Z,8.8
2018-03-27T04:18:27.780Z,8.8
2018-03-27T04:19:37.570Z,8.82
2018-03-27T04:20:47.640Z,8.76
2018-03-27T04:21:57.422Z,8.87
2018-03-27T04:23:07.474Z,8.82
2018-03-27T04:24:17.264Z,8.87
2018-03-27T04:25:27.050Z,8.86
2018-03-27T04:26:37.188Z,8.94
2018-03-27T04:27:46.974Z,8.98
2018-03-27T04:28:57.046Z,9.01
2018-03-27T04:30:07.115Z,8.89
2018-03-27T04:31:16.922Z,8.9
2018-03-27T04:32:26.988Z,9.01
2018-03-27T04:33:36.776Z,9.03
2018-03-27T04:34:46.855Z,9
2018-03-27T04:35:56.385Z,9.05
2018-03-27T04:37:06.473Z,9.01
2018-03-27T04:38:16.014Z,9.03
2018-03-27T04:39:26.095Z,9.08
2018-03-27T04:40:35.897Z,9
2018-03-27T04:41:46.121Z,9.09
2018-03-27T04:42:56.206Z,9.09
2018-03-27T04:44:06.279Z,9.12
2018-03-27T04:45:16.399Z,9.14
2018-03-27T04:46:26.478Z,9.12
2018-03-27T04:47:36.564Z,9.04
2018-03-27T04:48:46.368Z,9.14
2018-03-27T04:49:55.644Z,9.08
2018-03-27T04:51:05.441Z,9.03
2018-03-27T04:52:15.506Z,9.08
2018-03-27T04:53:25.303Z,9
2018-03-27T04:54:34.830Z,9.04
2018-03-27T04:55:44.641Z,9.16
2018-03-27T04:56:54.445Z,9.16
2018-03-27T04:58:04.238Z,9.14
2018-03-27T04:59:13.844Z,9.12
2018-03-27T05:00:23.900Z,9.2
2018-03-27T05:01:33.696Z,9.2
2018-03-27T05:02:43.763Z,9.19
2018-03-27T05:03:53.814Z,9.16
2018-03-27T05:05:03.611Z,9.19
2018-03-27T05:06:13.151Z,9.19
2018-03-27T05:07:22.958Z,9.24
2018-03-27T05:08:32.753Z,9.26
2018-03-27T05:09:42.849Z,9.27
2018-03-27T05:10:52.654Z,9.3
2018-03-27T05:12:02.459Z,9.26
2018-03-27T05:13:12.334Z,9.35
2018-03-27T05:14:21.851Z,9.37
2018-03-27T05:15:31.381Z,9.37
2018-03-27T05:16:41.442Z,9.35
2018-03-27T05:17:51.529Z,9.37
2018-03-27T05:19:01.584Z,9.37
2018-03-27T05:20:11.654Z,9.42
2018-03-27T05:21:21.743Z,9.32
2018-03-27T05:22:31.801Z,9.38
2018-03-27T05:23:41.598Z,9.42
2018-03-27T05:24:51.670Z,9.5
2018-03-27T05:26:01.731Z,9.53
2018-03-27T05:27:11.808Z,9.5
2018-03-27T05:28:21.876Z,9.55
2018-03-27T05:29:31.939Z,9.53
2018-03-27T05:30:42.002Z,9.64
2018-03-27T05:31:52.065Z,9.66
2018-03-27T05:33:02.112Z,9.64
2018-03-27T05:34:12.226Z,9.57
2018-03-27T05:35:22.304Z,9.67
2018-03-27T05:36:32.404Z,9.67
2018-03-27T05:37:42.461Z,9.7
2018-03-27T05:38:52.012Z,9.74
2018-03-27T05:40:02.080Z,9.72
2018-03-27T05:41:12.149Z,9.72
2018-03-27T05:42:21.952Z,9.75
2018-03-27T05:43:31.744Z,9.88
2018-03-27T05:44:41.542Z,9.85
2018-03-27T05:45:51.639Z,9.84
2018-03-27T05:47:00.948Z,9.88
2018-03-27T05:48:11.025Z,9.9
2018-03-27T05:49:20.828Z,9.84
2018-03-27T05:50:30.631Z,9.88
2018-03-27T05:51:40.748Z,9.84
2018-03-27T05:52:50.883Z,9.9
2018-03-27T05:54:00.961Z,9.84
2018-03-27T05:55:10.771Z,9.93
2018-03-27T05:56:20.840Z,9.96
2018-03-27T05:57:30.646Z,9.96
2018-03-27T05:58:40.459Z,9.92
2018-03-27T05:59:49.993Z,10
2018-03-27T06:01:00.051Z,9.96
2018-03-27T06:02:10.104Z,10.02
2018-03-27T06:03:20.191Z,9.96
2018-03-27T06:04:29.991Z,9.99
2018-03-27T06:05:40.056Z,9.95
2018-03-27T06:06:50.105Z,10.11
2018-03-27T06:07:59.911Z,10.1
2018-03-27T06:09:09.716Z,10.13
2018-03-27T06:10:19.792Z,10.2
2018-03-27T06:11:29.592Z,10.15
2018-03-27T06:12:39.402Z,10.26
2018-03-27T06:13:49.193Z,10.29
2018-03-27T06:14:59.021Z,10.28
2018-03-27T06:16:09.086Z,10.39
2018-03-27T06:17:18.875Z,10.35
2018-03-27T06:18:28.428Z,10.41
2018-03-27T06:19:38.498Z,10.35
2018-03-27T06:20:48.621Z,10.39
2018-03-27T06:21:58.703Z,10.39
2018-03-27T06:23:08.521Z,10.38
2018-03-27T06:24:18.329Z,10.42
2018-03-27T06:25:28.402Z,10.39
2018-03-27T06:26:38.000Z,10.38
2018-03-27T06:27:47.870Z,10.33
2018-03-27T06:28:57.944Z,10.46
2018-03-27T06:30:07.481Z,10.35
2018-03-27T06:31:17.544Z,10.46
2018-03-27T06:32:27.646Z,10.39
2018-03-27T06:33:37.708Z,10.38
2018-03-27T06:34:47.791Z,10.39
2018-03-27T06:35:57.594Z,10.57
2018-03-27T06:37:07.671Z,10.49
2018-03-27T06:38:17.462Z,10.51
2018-03-27T06:39:27.525Z,10.59
2018-03-27T06:40:37.677Z,10.58
2018-03-27T06:41:47.486Z,10.63
2018-03-27T06:42:57.553Z,10.67
2018-03-27T06:44:07.643Z,10.69
2018-03-27T06:45:17.451Z,10.67
2018-03-27T06:46:27.525Z,10.66
2018-03-27T06:47:37.697Z,10.73
2018-03-27T06:48:46.901Z,10.73
2018-03-27T06:49:56.705Z,10.8
2018-03-27T06:51:06.763Z,10.79
2018-03-27T06:52:16.833Z,10.76
2018-03-27T06:53:26.878Z,10.75
2018-03-27T06:54:36.430Z,10.66
2018-03-27T06:55:45.963Z,10.67
2018-03-27T06:56:55.493Z,10.7
2018-03-27T06:58:05.563Z,10.58
2018-03-27T06:59:15.620Z,10.65
2018-03-27T07:00:25.700Z,10.72
2018-03-27T07:01:35.809Z,10.69
2018-03-27T07:02:45.973Z,10.73
2018-03-27T07:03:56.131Z,10.75
2018-03-27T07:05:06.245Z,10.8
2018-03-27T07:06:16.469Z,10.9
2018-03-27T07:07:26.406Z,10.98
2018-03-27T07:08:36.187Z,10.98
2018-03-27T07:09:45.757Z,10.98
2018-03-27T07:10:55.871Z,10.94
2018-03-27T07:12:06.008Z,11.02
2018-03-27T07:13:16.160Z,10.9
2018-03-27T07:14:26.383Z,10.94
2018-03-27T07:15:36.490Z,10.92
2018-03-27T07:16:46.625Z,10.88
2018-03-27T07:17:56.751Z,10.84
2018-03-27T07:19:06.621Z,10.95
2018-03-27T07:20:16.840Z,11.03
2018-03-27T07:21:26.953Z,11.02
2018-03-27T07:22:37.023Z,11.2
2018-03-27T07:23:47.092Z,11.13
2018-03-27T07:24:57.138Z,11.2
2018-03-27T07:26:07.234Z,11.2
2018-03-27T07:27:17.307Z,11.33
2018-03-27T07:28:27.104Z,11.38
2018-03-27T07:29:36.967Z,11.42
2018-03-27T07:30:47.095Z,11.45
2018-03-27T07:31:56.908Z,11.52
2018-03-27T07:33:06.971Z,11.49
2018-03-27T07:34:17.056Z,11.51
2018-03-27T07:35:26.606Z,11.45
2018-03-27T07:36:36.422Z,11.46
2018-03-27T07:37:46.216Z,11.42
2018-03-27T07:38:56.335Z,11.38
2018-03-27T07:40:06.281Z,11.3
2018-03-27T07:41:16.358Z,11.39
2018-03-27T07:42:26.446Z,11.38
2018-03-27T07:43:36.531Z,11.39
2018-03-27T07:44:46.605Z,11.35
2018-03-27T07:45:56.690Z,11.51
2018-03-27T07:47:06.752Z,11.66
2018-03-27T07:48:16.818Z,11.68
2018-03-27T07:49:26.959Z,11.7
2018-03-27T07:50:37.154Z,11.82
2018-03-27T07:51:47.280Z,11.91
2018-03-27T07:52:57.664Z,11.86
2018-03-27T07:54:07.795Z,11.94
2018-03-27T07:55:17.886Z,11.97
2018-03-27T07:56:27.891Z,11.89
2018-03-27T07:57:37.956Z,11.94
2018-03-27T07:58:48.331Z,11.97
2018-03-27T07:59:58.464Z,11.88
2018-03-27T08:01:08.558Z,12.03
2018-03-27T08:02:18.656Z,12.16
2018-03-27T08:03:28.246Z,12.26
2018-03-27T08:04:38.424Z,12.34
2018-03-27T08:05:48.514Z,12.34
2018-03-27T08:06:58.599Z,12.47
2018-03-27T08:08:08.679Z,12.41
2018-03-27T08:09:18.795Z,12.38
2018-03-27T08:10:28.863Z,12.23
2018-03-27T08:11:38.696Z,12.22
2018-03-27T08:12:48.759Z,12.31
2018-03-27T08:13:58.847Z,12.37
2018-03-27T08:15:08.931Z,12.41
2018-03-27T08:16:19.039Z,12.44
2018-03-27T08:17:28.859Z,12.45
2018-03-27T08:18:39.067Z,12.47
2018-03-27T08:19:49.361Z,12.52
2018-03-27T08:20:59.204Z,12.63
2018-03-27T08:22:09.533Z,12.58
2018-03-27T08:23:19.642Z,12.74
2018-03-27T08:24:29.920Z,12.94
2018-03-27T08:25:40.322Z,13.14
2018-03-27T08:26:50.127Z,13.39
2018-03-27T08:28:00.705Z,13.55
2018-03-27T08:29:11.054Z,13.69
2018-03-27T08:30:21.248Z,13.87
2018-03-27T08:31:31.072Z,13.9
2018-03-27T08:32:41.390Z,13.84
2018-03-27T08:33:51.479Z,13.72
2018-03-27T08:35:01.691Z,13.62
2018-03-27T08:36:12.226Z,13.63
2018-03-27T08:37:22.546Z,13.54
2018-03-27T08:43:50.971Z,14.03
2018-03-27T08:45:01.056Z,14.02
2018-03-27T08:46:10.890Z,13.97
2018-03-27T08:47:20.982Z,14.05
2018-03-27T08:48:31.059Z,14.05
2018-03-27T08:49:40.930Z,14.24
2018-03-27T08:50:50.730Z,14.27
2018-03-27T08:52:00.547Z,14.52
2018-03-27T08:53:10.645Z,14.7
2018-03-27T08:54:20.729Z,14.82
2018-03-27T08:55:30.872Z,14.94
2018-03-27T08:56:40.969Z,14.9
2018-03-27T08:57:50.534Z,14.97
2018-03-27T08:59:00.371Z,15.15
2018-03-27T09:00:10.175Z,15.26
2018-03-27T09:01:20.249Z,15.34
2018-03-27T09:02:30.321Z,15.44
2018-03-27T09:03:40.153Z,15.38
2018-03-27T09:04:50.390Z,15.49
2018-03-27T09:06:00.456Z,15.45
2018-03-27T09:07:10.350Z,15.44
2018-03-27T09:08:20.426Z,15.34
2018-03-27T09:09:30.498Z,15.49
2018-03-27T09:10:40.583Z,15.4
2018-03-27T09:11:50.417Z,15.23
2018-03-27T09:13:00.508Z,14.98
2018-03-27T09:14:09.831Z,14.75
2018-03-27T09:15:19.683Z,14.85
2018-03-27T09:16:29.243Z,14.77
2018-03-27T09:17:38.792Z,14.71
2018-03-27T09:18:48.871Z,14.94
2018-03-27T09:19:58.420Z,15.12
2018-03-27T09:21:08.003Z,15.2
2018-03-27T09:22:18.347Z,15.33
2018-03-27T09:23:28.240Z,15.52
2018-03-27T09:24:38.311Z,15.62
2018-03-27T09:25:48.387Z,15.73
2018-03-27T09:26:58.471Z,15.74
2018-03-27T09:28:08.563Z,15.67
2018-03-27T09:29:18.436Z,15.53
2018-03-27T09:30:28.510Z,15.44
2018-03-27T09:31:38.584Z,15.49
2018-03-27T09:32:48.651Z,15.58
2018-03-27T09:33:58.470Z,15.65
2018-03-27T09:35:08.304Z,15.77
2018-03-27T09:36:18.409Z,15.93
2018-03-27T09:37:28.258Z,16.08
2018-03-27T09:38:38.325Z,16.37
2018-03-27T09:39:48.397Z,16.36
2018-03-27T09:40:58.237Z,16.58
2018-03-27T09:42:08.064Z,16.81
2018-03-27T09:43:17.886Z,16.91
2018-03-27T09:44:27.409Z,17
2018-03-27T09:45:37.673Z,17.22
2018-03-27T09:46:47.784Z,17.31
2018-03-27T09:47:57.664Z,17.5
2018-03-27T09:49:07.837Z,17.55
2018-03-27T09:50:17.910Z,17.55
2018-03-27T09:51:28.020Z,17.45
2018-03-27T09:52:37.852Z,17.24
2018-03-27T09:53:47.933Z,17.1
2018-03-27T09:54:57.487Z,16.91
2018-03-27T09:56:07.571Z,16.9
2018-03-27T09:57:17.109Z,16.66
2018-03-27T09:58:27.246Z,16.69
2018-03-27T09:59:37.396Z,16.67
2018-03-27T10:00:47.218Z,16.91
2018-03-27T10:01:57.046Z,16.94
2018-03-27T10:03:06.886Z,16.95
2018-03-27T10:04:16.720Z,16.99
2018-03-27T10:05:26.542Z,17.27
2018-03-27T10:06:36.617Z,17.35
2018-03-27T10:07:46.179Z,17.45
2018-03-27T10:08:56.123Z,17.52
2018-03-27T10:10:06.213Z,17.5
2018-03-27T10:11:15.813Z,17.52
2018-03-27T10:12:25.652Z,17.69
2018-03-27T10:13:35.471Z,18.01
2018-03-27T10:14:45.293Z,18.41
2018-03-27T10:15:55.506Z,18.49
2018-03-27T10:17:05.072Z,18.44
2018-03-27T10:18:15.173Z,18.23
2018-03-27T10:19:24.996Z,18.05
2018-03-27T10:20:34.814Z,17.92
2018-03-27T10:21:44.639Z,17.69
2018-03-27T10:22:54.238Z,17.46
2018-03-27T10:24:04.065Z,17.27
2018-03-27T10:25:14.146Z,17.21
2018-03-27T10:26:23.704Z,17.07
2018-03-27T10:27:33.559Z,17.13
2018-03-27T10:28:43.675Z,17.1
2018-03-27T10:29:53.479Z,17.15
2018-03-27T10:31:03.566Z,16.99
2018-03-27T10:32:13.635Z,17
2018-03-27T10:33:23.723Z,17.09
2018-03-27T10:34:33.428Z,17.21
2018-03-27T10:35:43.534Z,17.38
2018-03-27T10:36:53.357Z,17.69
2018-03-27T10:38:03.706Z,17.62
2018-03-27T10:39:13.790Z,17.9
2018-03-27T10:40:23.949Z,18.2
2018-03-27T10:41:33.751Z,18.61
2018-03-27T10:42:43.823Z,18.91
2018-03-27T10:43:53.909Z,18.93
2018-03-27T10:45:03.721Z,18.94
2018-03-27T10:46:13.832Z,19.05
2018-03-27T10:47:23.669Z,19.23
2018-03-27T10:48:33.526Z,19.43
2018-03-27T10:49:43.603Z,19.31
2018-03-27T10:50:53.155Z,19.28
2018-03-27T10:52:03.241Z,19.25
2018-03-27T10:53:13.383Z,19.42
2018-03-27T10:54:22.958Z,19.42
2018-03-27T10:55:33.039Z,19.45
2018-03-27T10:56:43.137Z,19.49
2018-03-27T10:57:52.973Z,19.63
2018-03-27T10:59:02.516Z,19.67
2018-03-27T11:00:12.598Z,19.6
2018-03-27T11:01:22.432Z,19.57
2018-03-27T11:02:32.259Z,19.5
2018-03-27T11:03:42.087Z,19.46
2018-03-27T11:04:51.694Z,19.42
2018-03-27T11:06:01.798Z,19.23
2018-03-27T11:07:11.607Z,19.13
2018-03-27T11:08:21.452Z,18.9
2018-03-27T11:09:31.527Z,18.74
2018-03-27T11:10:40.809Z,18.56
2018-03-27T11:11:50.950Z,18.34
2018-03-27T11:13:01.057Z,18.16
2018-03-27T11:14:10.595Z,17.94
2018-03-27T11:15:20.662Z,17.79
2018-03-27T11:16:30.202Z,17.69
2018-03-27T11:17:40.316Z,17.81
2018-03-27T11:18:50.412Z,17.99
2018-03-27T11:20:00.247Z,18.17
2018-03-27T11:21:10.343Z,18.31
2018-03-27T11:22:20.410Z,18.45
2018-03-27T11:23:30.502Z,18.71
2018-03-27T11:24:40.585Z,18.84
2018-03-27T11:25:50.393Z,18.87
2018-03-27T11:27:00.222Z,18.86
2018-03-27T11:28:10.045Z,18.82
2018-03-27T11:29:20.011Z,18.9
2018-03-27T11:30:30.077Z,18.99
2018-03-27T11:31:40.230Z,18.89
2018-03-27T11:32:50.046Z,18.63
2018-03-27T11:34:00.134Z,18.47
2018-03-27T11:35:09.950Z,18.42
2018-03-27T11:36:19.766Z,18.41
2018-03-27T11:37:29.601Z,18.41
2018-03-27T11:38:39.456Z,18.16
2018-03-27T11:39:49.546Z,18.11
2018-03-27T11:40:59.637Z,17.99
2018-03-27T11:42:09.963Z,17.98
2018-03-27T11:43:20.075Z,17.98
2018-03-27T11:44:29.901Z,17.98
2018-03-27T11:45:40.006Z,17.98
2018-03-27T11:46:49.895Z,17.94
2018-03-27T11:47:59.996Z,18.01
2018-03-27T11:49:10.110Z,17.96
2018-03-27T11:50:19.721Z,18.03
2018-03-27T11:51:29.813Z,18.06
2018-03-27T11:52:39.653Z,18.11
2018-03-27T11:53:49.735Z,18.19
2018-03-27T11:54:59.561Z,18.19
2018-03-27T11:56:09.384Z,18.2
2018-03-27T11:57:19.498Z,18.23
2018-03-27T11:58:29.320Z,18.2
2018-03-27T11:59:39.124Z,18.1
2018-03-27T12:00:49.237Z,17.99
2018-03-27T12:01:58.774Z,17.88
2018-03-27T12:03:08.852Z,17.98
2018-03-27T12:04:18.932Z,17.99
2018-03-27T12:05:29.023Z,18.02
2018-03-27T12:06:38.324Z,18.05
2018-03-27T12:07:48.145Z,17.98
2018-03-27T12:08:57.700Z,18.02
2018-03-27T12:10:07.564Z,17.79
2018-03-27T12:11:17.637Z,17.65
2018-03-27T12:12:27.723Z,17.43
2018-03-27T12:13:37.543Z,17.39
2018-03-27T12:14:47.103Z,17.35
2018-03-27T12:15:57.184Z,17.4
2018-03-27T12:17:07.016Z,17.5
2018-03-27T12:18:16.557Z,17.47
2018-03-27T12:19:26.378Z,17.69
2018-03-27T12:20:36.201Z,17.9
2018-03-27T12:21:46.058Z,17.96
2018-03-27T12:22:55.617Z,18.19
2018-03-27T12:24:05.753Z,18.16
2018-03-27T12:25:15.332Z,18.24
2018-03-27T12:26:25.437Z,18.35
2018-03-27T12:27:35.033Z,18.45
2018-03-27T12:28:44.865Z,18.5
2018-03-27T12:29:54.699Z,18.53
2018-03-27T12:31:04.510Z,18.56
2018-03-27T12:32:14.584Z,18.49
2018-03-27T12:33:24.650Z,18.27
2018-03-27T12:34:34.212Z,18.45
2018-03-27T12:35:44.013Z,18.36
2018-03-27T12:36:53.602Z,18.31
2018-03-27T12:38:03.789Z,18.17
2018-03-27T12:39:13.929Z,18.17
2018-03-27T12:40:23.226Z,18.26
2018-03-27T12:41:33.308Z,18.31
2018-03-27T12:42:43.138Z,18.41
2018-03-27T12:43:53.216Z,18.45
2018-03-27T12:45:03.301Z,18.32
2018-03-27T12:46:12.883Z,18.41
2018-03-27T12:47:22.709Z,18.42
2018-03-27T12:48:32.809Z,18.39
2018-03-27T12:49:42.628Z,18.45
2018-03-27T12:50:52.235Z,18.47
2018-03-27T12:52:02.301Z,18.51
2018-03-27T12:53:12.419Z,18.47
2018-03-27T12:54:22.651Z,18.39
2018-03-27T12:55:32.749Z,18.44
2018-03-27T12:56:42.295Z,18.45
2018-03-27T12:57:51.610Z,18.47
2018-03-27T12:59:01.498Z,18.23
2018-03-27T13:00:11.360Z,17.96
2018-03-27T13:01:21.186Z,17.88
2018-03-27T13:02:31.315Z,17.77
2018-03-27T13:03:41.117Z,17.57
2018-03-27T13:04:51.203Z,17.52
2018-03-27T13:06:01.281Z,17.27
2018-03-27T13:07:11.371Z,17.36
2018-03-27T13:08:21.250Z,17.52
2018-03-27T13:09:31.349Z,17.47
2018-03-27T13:10:41.233Z,17.4
2018-03-27T13:11:50.559Z,17.24
2018-03-27T13:13:00.461Z,17.24
2018-03-27T13:14:10.336Z,17.32
2018-03-27T13:15:20.167Z,17.27
2018-03-27T13:16:29.989Z,17.1
2018-03-27T13:17:40.115Z,17.09
2018-03-27T13:18:50.068Z,17.09
2018-03-27T13:19:59.636Z,17.12
2018-03-27T13:21:09.475Z,17.1
2018-03-27T13:22:19.320Z,17.07
2018-03-27T13:23:29.203Z,17.21
2018-03-27T13:24:39.203Z,17.42
2018-03-27T13:25:49.288Z,17.79
2018-03-27T13:26:59.184Z,18.1
2018-03-27T13:28:09.255Z,18.17
2018-03-27T13:29:19.346Z,18.17
2018-03-27T13:30:29.443Z,17.86
2018-03-27T13:31:39.537Z,17.74
2018-03-27T13:32:49.624Z,17.68
2018-03-27T13:33:59.682Z,17.69
2018-03-27T13:35:09.513Z,17.81
2018-03-27T13:36:19.638Z,17.99
2018-03-27T13:37:28.994Z,18.1
2018-03-27T13:38:38.818Z,17.98
2018-03-27T13:39:48.901Z,17.69
2018-03-27T13:40:59.757Z,17.47
2018-03-27T13:42:10.404Z,17.58
2018-03-27T13:43:20.266Z,17.57
2018-03-27T13:44:30.373Z,17.47
2018-03-27T13:45:41.578Z,17.45
2018-03-27T13:46:55.286Z,17.32
2018-03-27T13:48:08.630Z,17.22
2018-03-27T13:49:21.049Z,17.09
2018-03-27T13:50:34.148Z,16.95
2018-03-27T13:51:46.696Z,16.84
2018-03-27T13:52:57.194Z,16.74
2018-03-27T13:54:07.548Z,16.65
2018-03-27T13:55:17.418Z,16.47
2018-03-27T13:56:27.247Z,16.42
2018-03-27T13:57:37.089Z,16.3
2018-03-27T13:58:46.912Z,16.02
2018-03-27T13:59:56.747Z,15.95
2018-03-27T14:01:06.918Z,15.92
2018-03-27T14:02:16.999Z,15.75
2018-03-27T14:03:26.827Z,15.68
2018-03-27T14:04:36.621Z,15.56
2018-03-27T14:05:46.187Z,15.49
2018-03-27T14:06:56.280Z,15.47
2018-03-27T14:08:06.106Z,15.33
2018-03-27T14:09:15.688Z,15.27
2018-03-27T14:10:25.531Z,15.16
2018-03-27T14:11:35.342Z,15.08
2018-03-27T14:12:44.905Z,14.98
2018-03-27T14:13:54.731Z,15.01
2018-03-27T14:15:05.062Z,14.93
2018-03-27T14:16:15.155Z,14.8
2018-03-27T14:17:25.495Z,14.66
2018-03-27T14:18:35.375Z,14.6
2018-03-27T14:19:45.507Z,14.44
2018-03-27T14:20:55.598Z,14.08
2018-03-27T14:22:05.419Z,13.87
2018-03-27T14:23:14.995Z,13.68
2018-03-27T14:24:24.866Z,13.42
2018-03-27T14:25:34.152Z,13.36
2018-03-27T14:26:44.244Z,13.19
2018-03-27T14:27:54.321Z,13.11
2018-03-27T14:29:04.132Z,13.03
2018-03-27T14:30:13.714Z,13.06
2018-03-27T14:31:23.548Z,12.89
2018-03-27T14:32:33.628Z,12.81
2018-03-27T14:33:43.719Z,12.76
2018-03-27T14:34:53.546Z,12.69
2018-03-27T14:36:03.718Z,12.61
2018-03-27T14:37:13.276Z,12.62
2018-03-27T14:38:23.545Z,12.43
2018-03-27T14:39:33.370Z,12.25
2018-03-27T14:40:43.483Z,11.98
2018-03-27T14:41:53.347Z,11.89
2018-03-27T14:43:03.446Z,11.75
2018-03-27T14:44:13.256Z,11.71
2018-03-27T14:45:23.365Z,11.61
2018-03-27T14:46:33.551Z,11.48
2018-03-27T14:47:43.659Z,11.39
2018-03-27T14:48:53.725Z,11.3
2018-03-27T14:50:03.307Z,11.24
2018-03-27T14:51:13.404Z,11.13
2018-03-27T14:52:23.226Z,10.92
2018-03-27T14:53:33.615Z,10.79
2018-03-27T14:54:43.927Z,10.58
2018-03-27T14:55:54.209Z,10.31
2018-03-27T14:57:04.316Z,10.23
2018-03-27T14:58:14.143Z,10.08
2018-03-27T14:59:24.125Z,9.96
2018-03-27T15:00:34.183Z,9.82
2018-03-27T15:01:43.473Z,9.84
2018-03-27T15:02:53.287Z,9.63
2018-03-27T15:04:03.573Z,9.59
2018-03-27T15:05:13.897Z,9.5
2018-03-27T15:06:23.990Z,9.3
2018-03-27T15:07:34.086Z,9.32
2018-03-27T15:08:44.182Z,9.27
2018-03-27T15:09:54.276Z,9.16
2018-03-27T15:11:04.408Z,9.26
2018-03-27T15:12:14.488Z,9.3
2018-03-27T15:13:24.779Z,9.16
2018-03-27T15:14:34.613Z,9.17
2018-03-27T15:15:45.150Z,9.2
2018-03-27T15:16:54.715Z,9.14
2018-03-27T15:18:04.294Z,8.98
2018-03-27T15:19:14.295Z,9.08
2018-03-27T15:20:24.548Z,9.12
2018-03-27T15:21:34.918Z,9.2
2018-03-27T15:22:45.407Z,9.08
2018-03-27T15:23:55.243Z,9.2
2018-03-27T15:25:05.528Z,9.19
2018-03-27T15:26:16.045Z,9.29
2018-03-27T15:27:25.910Z,9.24
2018-03-27T15:28:35.788Z,9.32
2018-03-27T15:29:46.512Z,9.55
2018-03-27T15:30:56.627Z,9.6
2018-03-27T15:32:06.944Z,9.64
2018-03-27T15:33:17.019Z,9.75
2018-03-27T15:34:27.053Z,9.82
2018-03-27T15:35:36.631Z,9.96
2018-03-27T15:36:46.847Z,10.1
2018-03-27T15:37:56.918Z,10.25
2018-03-27T15:39:07.277Z,10.46
2018-03-27T15:40:17.570Z,10.47
2018-03-27T15:41:28.122Z,10.58
2018-03-27T15:42:38.448Z,10.66
2018-03-27T15:43:48.553Z,10.65
2018-03-27T15:44:58.658Z,10.65
2018-03-27T15:46:08.823Z,10.61
2018-03-27T15:47:18.937Z,10.51
2018-03-27T15:48:29.241Z,10.47
2018-03-27T15:49:39.600Z,10.49
2018-03-27T15:50:49.616Z,10.39
2018-03-27T15:51:59.757Z,10.36